createdAt,value
2023-04-15T00:02:31.502Z,2.72
2023-04-15T00:07:34.786Z,3.10
2023-04-15T00:12:37.488Z,3.20
2023-04-15T00:17:40.497Z,2.42
2023-04-15T00:22:43.148Z,2.50
2023-04-15T00:27:45.928Z,1.65
2023-04-15T00:32:50.873Z,1.92
2023-04-15T00:37:56.929Z,1.38
2023-04-15T00:42:59.697Z,2.08
2023-04-15T00:48:02.784Z,3.40
2023-04-15T00:53:06.002Z,1.70
2023-04-15T00:58:08.784Z,2.47
2023-04-15T01:03:11.972Z,1.58
2023-04-15T01:08:15.093Z,2.20
2023-04-15T01:13:17.834Z,2.03
2023-04-15T01:18:21.308Z,2.03
2023-04-15T01:23:24.261Z,3.05
2023-04-15T01:28:27.440Z,2.08
2023-04-15T01:33:30.074Z,2.45
2023-04-15T01:38:51.680Z,2.65
2023-04-15T01:43:54.427Z,1.60
2023-04-15T01:48:58.593Z,2.60
2023-04-15T01:54:02.895Z,1.83
2023-04-15T01:59:07.791Z,2.15
2023-04-15T02:04:16.877Z,2.63
2023-04-15T02:09:20.880Z,2.80
2023-04-15T02:14:24.617Z,1.95
2023-04-15T02:19:28.776Z,1.95
2023-04-15T02:24:32.845Z,2.90
2023-04-15T02:29:37.030Z,1.55
2023-04-15T02:34:43.007Z,1.60
2023-04-15T02:39:47.599Z,2.42
2023-04-15T02:44:52.513Z,2.08
2023-04-15T02:49:56.565Z,1.60
2023-04-15T02:55:02.744Z,2.28
2023-04-15T03:00:09.930Z,1.80
2023-04-15T03:05:16.148Z,1.35
2023-04-15T03:10:28.321Z,1.83
2023-04-15T03:15:33.685Z,1.80
2023-04-15T03:20:38.321Z,2.08
2023-04-15T03:25:42.575Z,1.13
2023-04-15T03:30:46.507Z,2.30
2023-04-15T03:35:52.081Z,1.80
2023-04-15T03:40:56.143Z,1.95
2023-04-15T03:46:01.821Z,1.40
2023-04-15T03:51:06.338Z,2.70
2023-04-15T03:56:10.229Z,2.10
2023-04-15T04:01:14.334Z,1.83
2023-04-15T04:06:18.251Z,2.10
2023-04-15T04:11:22.407Z,1.13
2023-04-15T04:16:26.888Z,1.33
2023-04-15T04:21:31.578Z,1.75
2023-04-15T04:26:35.295Z,1.30
2023-04-15T04:31:39.340Z,1.05
2023-04-15T04:36:43.557Z,1.30
2023-04-15T04:41:47.287Z,1.05
2023-04-15T04:46:51.387Z,1.15
2023-04-15T04:51:55.350Z,1.42
2023-04-15T04:56:59.302Z,1.60
2023-04-15T05:02:04.160Z,1.67
2023-04-15T05:07:08.727Z,1.45
2023-04-15T05:12:15.304Z,1.48
2023-04-15T05:17:19.137Z,1.52
2023-04-15T05:22:23.315Z,1.40
2023-04-15T05:27:27.189Z,1.83
2023-04-15T05:32:31.423Z,1.23
2023-04-15T05:37:35.436Z,1.17
2023-04-15T05:42:39.423Z,1.27
2023-04-15T05:47:43.417Z,1.50
2023-04-15T05:52:47.592Z,1.95
2023-04-15T05:57:51.497Z,2.65
2023-04-15T06:02:57.130Z,1.80
2023-04-15T06:08:01.689Z,1.40
2023-04-15T06:13:05.522Z,2.05
2023-04-15T06:18:09.554Z,2.63
2023-04-15T06:23:13.306Z,3.20
2023-04-15T06:28:17.390Z,1.80
2023-04-15T06:33:21.908Z,2.30
2023-04-15T06:38:25.568Z,1.33
2023-04-15T06:43:29.952Z,2.05
2023-04-15T06:48:33.754Z,2.70
2023-04-15T06:53:41.428Z,1.60
2023-04-15T06:58:47.533Z,2.70
2023-04-15T07:03:52.725Z,1.70
2023-04-15T07:08:57.621Z,2.45
2023-04-15T07:19:06.296Z,2.33
2023-04-15T07:24:12.619Z,2.30
2023-04-15T07:29:17.373Z,2.60
2023-04-15T07:34:22.440Z,2.65
2023-04-15T07:39:26.170Z,1.90
2023-04-15T07:44:30.691Z,2.33
2023-04-15T07:49:34.648Z,2.20
2023-04-15T07:54:38.652Z,2.03
2023-04-15T07:59:44.647Z,2.58
2023-04-15T08:04:52.239Z,2.40
2023-04-15T08:09:59.366Z,2.75
2023-04-15T08:15:03.566Z,1.98
2023-04-15T08:20:08.133Z,1.98
2023-04-15T08:25:11.993Z,1.95
2023-04-15T08:35:19.934Z,2.25
2023-04-15T08:45:33.911Z,2.10
2023-04-15T08:50:38.264Z,1.90
2023-04-15T08:55:47.631Z,2.40
2023-04-15T09:00:52.150Z,2.50
2023-04-15T09:05:57.655Z,2.50
2023-04-15T09:11:03.430Z,2.38
2023-04-15T09:16:08.697Z,2.38
2023-04-15T09:21:15.114Z,2.35
2023-04-15T09:26:19.421Z,2.92
2023-04-15T09:31:31.783Z,2.28
2023-04-15T09:36:54.026Z,3.03
2023-04-15T09:42:19.837Z,3.00
2023-04-15T09:47:31.997Z,3.15
2023-04-15T09:52:43.588Z,2.13
2023-04-15T09:57:47.890Z,2.88
2023-04-15T10:02:52.895Z,2.85
2023-04-15T10:08:01.083Z,3.00
2023-04-15T10:13:08.440Z,3.08
2023-04-15T10:18:18.092Z,2.10
2023-04-15T10:23:25.126Z,2.47
2023-04-15T10:28:32.806Z,2.28
2023-04-15T10:38:51.267Z,2.40
2023-04-15T10:44:00.301Z,1.95
2023-04-15T10:49:15.915Z,2.88
2023-04-15T10:54:27.709Z,2.42
2023-04-15T11:00:00.248Z,2.03
2023-04-15T11:05:05.295Z,2.25
2023-04-15T11:10:31.534Z,2.95
2023-04-15T11:15:45.656Z,2.67
2023-04-15T11:21:01.398Z,2.30
2023-04-15T11:26:14.631Z,2.47
2023-04-15T11:31:22.746Z,2.13
2023-04-15T11:36:28.558Z,2.30
2023-04-15T11:41:38.101Z,2.00
2023-04-15T11:46:43.014Z,2.13
2023-04-15T11:51:48.088Z,2.30
2023-04-15T11:56:53.136Z,2.17
2023-04-15T12:01:56.677Z,1.65
2023-04-15T12:07:06.692Z,2.00
2023-04-15T12:12:12.840Z,2.33
2023-04-15T12:17:17.021Z,2.17
2023-04-15T12:22:22.463Z,1.38
2023-04-15T12:27:29.731Z,2.30
2023-04-15T12:32:36.661Z,1.45
2023-04-15T12:37:39.314Z,1.58
2023-04-15T12:42:43.684Z,1.63
2023-04-15T12:47:46.761Z,2.17
2023-04-15T12:52:49.707Z,1.58
2023-04-15T12:57:52.673Z,1.30
2023-04-15T13:02:55.446Z,1.63
2023-04-15T13:07:58.469Z,1.40
2023-04-15T13:13:02.383Z,1.45
2023-04-15T13:18:07.457Z,1.50
2023-04-15T13:23:10.869Z,2.08
2023-04-15T13:28:13.972Z,1.92
2023-04-15T13:33:18.042Z,1.73
2023-04-15T13:38:21.572Z,0.82
2023-04-15T13:43:24.364Z,1.00
2023-04-15T13:48:27.175Z,1.10
2023-04-15T13:53:38.144Z,2.20
2023-04-15T13:58:42.006Z,2.13
2023-04-15T14:03:44.887Z,2.25
2023-04-15T14:08:48.067Z,1.45
2023-04-15T14:13:51.564Z,1.30
2023-04-15T14:18:54.392Z,1.40
2023-04-15T14:23:57.302Z,1.20
2023-04-15T14:28:59.996Z,1.70
2023-04-15T14:34:03.039Z,1.45
2023-04-15T14:39:06.648Z,1.20
2023-04-15T14:44:11.892Z,1.90
2023-04-15T14:49:15.186Z,1.70
2023-04-15T14:54:18.024Z,1.20
2023-04-15T14:59:20.753Z,1.58
2023-04-15T15:04:23.597Z,0.82
2023-04-15T15:09:26.906Z,1.10
2023-04-15T15:14:29.834Z,1.70
2023-04-15T15:19:32.465Z,1.38
2023-04-15T15:24:35.249Z,1.55
2023-04-15T15:29:38.530Z,2.05
2023-04-15T15:34:41.508Z,1.92
2023-04-15T15:39:44.473Z,2.10
2023-04-15T15:44:49.548Z,2.63
2023-04-15T15:49:52.291Z,2.90
2023-04-15T15:54:55.142Z,2.60
2023-04-15T16:00:10.202Z,2.88
2023-04-15T16:05:16.172Z,2.30
2023-04-15T16:10:18.932Z,1.00
2023-04-15T16:15:25.568Z,2.13
2023-04-15T16:20:29.235Z,1.65
2023-04-15T16:25:32.028Z,2.92
2023-04-15T16:30:41.927Z,3.95
2023-04-15T16:35:44.782Z,3.28
2023-04-15T16:40:47.362Z,2.30
2023-04-15T16:45:51.682Z,2.88
2023-04-15T16:50:54.696Z,3.13
2023-04-15T16:55:57.527Z,2.10
2023-04-15T17:01:00.354Z,1.20
2023-04-15T17:06:03.286Z,1.80
2023-04-15T17:11:06.738Z,1.58
2023-04-15T17:16:09.943Z,1.10
2023-04-15T17:21:19.193Z,2.28
2023-04-15T17:26:26.900Z,1.17
2023-04-15T17:31:32.959Z,1.90
2023-04-15T17:36:55.849Z,1.20
2023-04-15T17:42:18.488Z,1.40
2023-04-15T17:47:44.795Z,1.90
2023-04-15T17:53:07.686Z,1.60
2023-04-15T17:58:30.683Z,3.60
2023-04-15T18:03:53.664Z,3.10
2023-04-15T18:09:17.203Z,2.17
2023-04-15T18:14:39.931Z,1.45
2023-04-15T18:20:03.038Z,1.70
2023-04-15T18:25:09.330Z,2.13
2023-04-15T18:30:13.054Z,2.15
2023-04-15T18:35:17.463Z,2.30
2023-04-15T18:40:20.219Z,2.00
2023-04-15T18:45:22.915Z,1.55
2023-04-15T18:50:25.651Z,1.33
2023-04-15T18:55:28.415Z,2.10
2023-04-15T19:00:31.556Z,1.67
2023-04-15T19:05:36.363Z,1.83
2023-04-15T19:10:39.298Z,1.55
2023-04-15T19:15:42.258Z,1.65
2023-04-15T19:20:45.138Z,1.67
2023-04-15T19:25:48.016Z,1.85
2023-04-15T19:30:52.921Z,1.40
2023-04-15T19:35:55.945Z,2.42
2023-04-15T19:41:00.200Z,2.55
2023-04-15T19:46:03.413Z,2.83
2023-04-15T19:51:06.590Z,2.28
2023-04-15T19:56:09.615Z,2.30
2023-04-15T20:01:12.429Z,2.28
2023-04-15T20:06:17.151Z,1.58
2023-04-15T20:11:20.158Z,2.22
2023-04-15T20:16:25.442Z,2.28
2023-04-15T20:21:28.171Z,1.75
2023-04-15T20:26:31.481Z,1.75
2023-04-15T20:31:34.277Z,1.98
2023-04-15T20:36:37.383Z,2.20
2023-04-15T20:41:40.274Z,3.28
2023-04-15T20:46:43.270Z,2.70
2023-04-15T20:51:45.927Z,2.25
2023-04-15T20:56:48.627Z,2.78
2023-04-15T21:01:51.744Z,2.40
2023-04-15T21:06:54.900Z,2.47
2023-04-15T21:12:01.659Z,2.50
2023-04-15T21:17:09.260Z,2.40
2023-04-15T21:22:13.592Z,2.55
2023-04-15T21:27:16.692Z,2.53
2023-04-15T21:32:19.457Z,2.70
2023-04-15T21:37:22.160Z,2.40
2023-04-15T21:42:25.125Z,2.60
2023-04-15T21:47:27.787Z,3.08
2023-04-15T21:52:30.687Z,2.55
2023-04-15T21:57:34.550Z,2.10
2023-04-15T22:02:40.570Z,2.70
2023-04-15T22:07:43.974Z,3.05
2023-04-15T22:12:46.919Z,2.67
2023-04-15T22:17:49.990Z,3.20
2023-04-15T22:22:54.449Z,3.08
2023-04-15T22:27:57.433Z,2.50
2023-04-15T22:33:01.259Z,2.65
2023-04-15T22:38:05.213Z,2.80
2023-04-15T22:43:08.091Z,2.70
2023-04-15T22:48:10.948Z,2.83
2023-04-15T22:53:17.919Z,4.00
2023-04-15T22:58:21.073Z,6.18
2023-04-15T23:03:24.159Z,7.05
2023-04-15T23:08:27.147Z,5.97
2023-04-15T23:13:29.854Z,5.22
2023-04-15T23:18:32.557Z,4.97
2023-04-15T23:23:35.337Z,5.60
2023-04-15T23:28:37.932Z,4.88
2023-04-15T23:33:40.538Z,5.90
2023-04-15T23:38:43.119Z,6.40
2023-04-15T23:43:46.016Z,5.72
2023-04-15T23:48:49.320Z,7.30
2023-04-15T23:53:52.670Z,4.85
2023-04-15T23:58:55.298Z,5.30
